AirNav   Everest Fuels
 
 307 users online  

KGFZ Greenfield Municipal Airport
Greenfield, Iowa, USA

GOING TO GREENFIELD?


FAA INFORMATION EFFECTIVE 07 NOVEMBER 2019

Location

FAA Identifier: GFZ
Lat/Long: 41-19-38.0000N 094-26-42.6000W
41-19.633333N 094-26.710000W
41.3272222,-94.4451667
(estimated)
Elevation: 1363.6 ft. / 415.6 m (surveyed)
Variation: 04E (1995)
From city: 2 miles NE of GREENFIELD, IA
Time zone: UTC -6 (UTC -5 during Daylight Saving Time)
Zip code: 50849

Airport Operations

Airport use: Open to the public
Activation date: 02/1958
Control tower: no
ARTCC: MINNEAPOLIS CENTER
FSS: FORT DODGE FLIGHT SERVICE STATION
NOTAMs facility: FOD (NOTAM-D service available)
Attendance: UNATNDD
Wind indicator: lighted, WIND INDICATOR LIGHTS ACTIVATED VIA 122.9.
Segmented circle: no
Lights: ACTVT MIRL RY 7/25 - CTAF. MIRL RY 07/25 PRESET ON LOW INTST; TO INCR INTST - CTAF.
Beacon: white-green (lighted land airport)
Operates sunset to sunrise.

Airport Communications

CTAF: 122.9
WX AWOS-3 at CSQ (19 nm S): 124.75 (641-782-6286)
  • APCH/DEP SVC PRVDD BY MINNEAPOLIS ARTCC ON FREQS 125.65/306.950 (DES MOINES RCAG).

Nearby radio navigation aids

VOR radial/distance  VOR name  Freq  Var
DSMr253/36.5DES MOINES VORTAC117.5007E

Airport Services

Fuel available: 100LL
Parking: tiedowns
Bottled oxygen: NONE
Bulk oxygen: NONE

Runway Information

Runway 7/25

Dimensions: 3400 x 60 ft. / 1036 x 18 m
Surface: concrete, in good condition
Runway edge lights: medium intensity
RUNWAY 7  RUNWAY 25
Latitude: 41-19.590795N41-19.697935N
Longitude: 094-26.958653W094-26.229695W
Elevation: 1359.1 ft.1363.6 ft.
Traffic pattern: leftleft
Runway heading: 074 magnetic, 078 true254 magnetic, 258 true
Markings: nonprecision, in good conditionnonprecision, in good condition
Touchdown point: yes, no lightsyes, no lights

Runway 14/32

Dimensions: 2500 x 50 ft. / 762 x 15 m
Surface: concrete, in good condition
Weight bearing capacity: 
Single wheel: 7.0
RUNWAY 14  RUNWAY 32
Latitude: 41-19.780437N41-19.454660N
Longitude: 094-27.034547W094-26.700672W
Elevation: 1356.6 ft.1362.2 ft.
Traffic pattern: leftleft
Runway heading: 138 magnetic, 142 true318 magnetic, 322 true
Declared distances: TORA:2500 TODA:2500 ASDA:2500 LDA:2500TORA:2500 TODA:2500 ASDA:2500 LDA:2250
Markings: basic, in fair conditionbasic, in fair condition
Runway end identifier lights: nono
Touchdown point: yes, no lightsyes, no lights
Obstructions: none16 ft. road, 320 ft. from runway, 250 ft. right of centerline, 7:1 slope to clear
18' HANGAR 50' FROM RWY END AND 250' RIGHT

Airport Ownership and Management from official FAA records

Ownership: Publicly-owned
Owner: CITY OF GREENFIELD
BOX 95
GREENFIELD, IA 50849
Phone 641-743-2183
Manager: ROY LEE WRIGHT
BOX 95
GREENFIELD, IA 50849
Phone 641-743-6384

Airport Operational Statistics

Aircraft based on the field: 27
Single engine airplanes: 23
Multi engine airplanes: 2
Gliders airplanes: 1
Ultralights: 1
    
Aircraft operations: avg 96/week *
57% transient general aviation
43% local general aviation
* for 12-month period ending 18 May 2017

Additional Remarks

PHONE ON ARPT.
INADQT CLNC FOR HLDG ON TURNAROUND AT THLD OF RWY 14.
RY 25 IS CALM WIND RY.
FOR CD CTC MINNEAPOLIS ARTCC AT 651-463-5588.

Instrument Procedures

NOTE: All procedures below are presented as PDF files. If you need a reader for these files, you should download the free Adobe Reader.

NOT FOR NAVIGATION. Please procure official charts for flight.
FAA instrument procedures published for use from 07 November 2019 at 0901Z to 05 December 2019 at 0900Z.

 
IAPs - Instrument Approach Procedures
RNAV (GPS) RWY 07 **CHANGED**   download (195KB)
RNAV (GPS) RWY 25 **CHANGED**   download (200KB)
NOTE: Special Take-Off Minimums/Departure Procedures apply   download (158KB)

Other nearby airports with instrument procedures:

KCSQ - Creston Municipal Airport (19 nm S)
3Y3 - Winterset Municipal Airport (19 nm E)
KGCT - Guthrie County Regional Airport (22 nm N)
KCRZ - Corning Municipal Airport (24 nm SW)
KAIO - Atlantic Municipal Airport (28 nm W)
 
Loc | Ops | Rwys | IFR | FBO | Links
Com | Nav | Svcs | Stats | Notes
Area around KGFZ (Greenfield Municipal Airport)
 
Road maps at: MapQuest Bing Google
 
Aerial photo
WARNING: Photo may not be current or correct
Aerial photo of KGFZ (Greenfield Municipal Airport)
Photo by Iden Mersereau
Photo taken 09-Sep-2018
looking east.

Do you have a better or more recent aerial photo of Greenfield Municipal Airport that you would like to share? If so, please send us your photo.

 
Sectional chart

 
Airport distance calculator
Flying to Greenfield Municipal Airport? Find the distance to fly.

From to KGFZ

Sunrise and sunset
Times for 15-Nov-2019
 Local
(UTC-6)
 Zulu
(UTC)
Morning civil twilight06:3712:37
Sunrise07:0713:07
Sunset16:5822:58
Evening civil twilight17:2723:27

Current date and time
Zulu (UTC)  15-Nov-2019 09:10:20
Local (UTC-6)  15-Nov-2019 03:10:20
 
METAR
KCSQ 
19nm S 
150855Z AUTO 23004KT 10SM CLR M05/M05 A3033 RMK AO2
KAIO 
28nm W 
150855Z AUTO 00000KT 10SM CLR M08/M08 A3034 RMK AO2
KADU 
31nm NW 
150855Z AUTO 00000KT 10SM CLR M09/M11 A3033 RMK AO2
KPRO 
33nm NE 
150855Z AUTO 24004KT 10SM CLR M06/M09 A3031 RMK AO2 T10601092
KDSM 
37nm E 
150854Z 22005KT 10SM CLR M05/M09 A3033 RMK AO2 SLP283 T10501089 56001
KI75 
38nm SE 
150855Z AUTO 23006KT 10SM CLR M04/M07 A3033 RMK AO2 T10381075
TAF
KDSM 
37nm E 
150534Z 1506/1606 20004KT P6SM BKN250 FM151600 00000KT P6SM BKN250 FM160500 14004KT 4SM BR BKN120
NOTAMs
Click for the latest NOTAMs
NOTAMs are issued by the DoD/FAA and will open in a separate window not controlled by AirNav.

 

 
 

FBO, Fuel Providers, and Aircraft Ground Support

  
 Business Name 
 
 Contact 
 
 Services / Description 
 
Fuel Prices
 
Comments
  
Greenfield Municipal Airport 641-743-2183
no information available

If you are affiliated with Greenfield Municipal Airport and would like to show here your services, contact info, web link, logo, and more, click here
100LL
SS $5.70 
 Updated 04-Nov-2019
 
   write
SS=Self service
Update Fuel Prices
 

Would you like to see your business listed on this page?

 If your business provides an interesting product or service to pilots, flight crews, aircraft, or users of the Greenfield Municipal Airport, you should consider listing it here.  To start the listing process, click on the button below
 
Add a business
 

Other Pages about Greenfield Municipal Airport

Page from the Iowa Airport Directory
 
Update a link
 
Copyright © AirNav, LLC. All rights reserved. Privacy Policy  Contact